sensor_id;sensor_type;location;lat;lon;timestamp;pressure;altitude;pressure_sealevel;temperature;humidity
54816;BME280;40715;55.752;37.884;2023-04-27T00:02:08;98276.56;;;32.38;21.85
54816;BME280;40715;55.752;37.884;2023-04-27T00:04:35;98265.47;;;32.32;21.56
54816;BME280;40715;55.752;37.884;2023-04-27T00:07:03;98279.28;;;32.38;21.75
54816;BME280;40715;55.752;37.884;2023-04-27T00:09:30;98278.25;;;32.39;21.94
54816;BME280;40715;55.752;37.884;2023-04-27T00:11:57;98288.13;;;32.40;21.55
54816;BME280;40715;55.752;37.884;2023-04-27T00:14:24;98278.25;;;32.39;21.67
54816;BME280;40715;55.752;37.884;2023-04-27T00:16:54;98280.97;;;32.39;21.85
54816;BME280;40715;55.752;37.884;2023-04-27T00:19:21;98287.06;;;32.41;21.97
54816;BME280;40715;55.752;37.884;2023-04-27T00:21:49;98286.84;;;32.42;21.99
54816;BME280;40715;55.752;37.884;2023-04-27T00:24:16;98287.06;;;32.41;21.66
54816;BME280;40715;55.752;37.884;2023-04-27T00:26:43;98293.97;;;32.43;21.55
54816;BME280;40715;55.752;37.884;2023-04-27T00:29:10;98287.47;;;32.44;21.82
54816;BME280;40715;55.752;37.884;2023-04-27T00:31:37;98275.94;;;32.42;21.99
54816;BME280;40715;55.752;37.884;2023-04-27T00:34:04;98284.09;;;32.42;21.57
54816;BME280;40715;55.752;37.884;2023-04-27T00:36:34;98287.91;;;32.41;21.81
54816;BME280;40715;55.752;37.884;2023-04-27T00:39:02;98279.72;;;32.41;21.49
54816;BME280;40715;55.752;37.884;2023-04-27T00:41:29;98288.94;;;32.40;21.87
54816;BME280;40715;55.752;37.884;2023-04-27T00:43:57;98294.19;;;32.42;21.93
54816;BME280;40715;55.752;37.884;2023-04-27T00:46:24;98297.75;;;32.42;21.51
54816;BME280;40715;55.752;37.884;2023-04-27T00:48:52;98299.44;;;32.43;21.95
54816;BME280;40715;55.752;37.884;2023-04-27T00:51:19;98297.75;;;32.42;21.98
54816;BME280;40715;55.752;37.884;2023-04-27T00:53:47;98288.13;;;32.40;21.84
54816;BME280;40715;55.752;37.884;2023-04-27T00:56:14;98284.75;;;32.38;21.46
54816;BME280;40715;55.752;37.884;2023-04-27T00:58:42;98294.84;;;32.44;21.66
54816;BME280;40715;55.752;37.884;2023-04-27T01:01:09;98291.47;;;32.42;21.64
54816;BME280;40715;55.752;37.884;2023-04-27T01:03:36;98293.34;;;32.41;21.68
54816;BME280;40715;55.752;37.884;2023-04-27T01:06:03;98290.44;;;32.43;21.98
54816;BME280;40715;55.752;37.884;2023-04-27T01:08:30;98294.84;;;32.44;21.92
54816;BME280;40715;55.752;37.884;2023-04-27T01:10:57;98282.25;;;32.43;21.47
54816;BME280;40715;55.752;37.884;2023-04-27T01:13:24;98284.97;;;32.43;21.59
54816;BME280;40715;55.752;37.884;2023-04-27T01:15:51;98283.06;;;32.43;21.66
54816;BME280;40715;55.752;37.884;2023-04-27T01:18:18;98288.31;;;32.45;21.58
54816;BME280;40715;55.752;37.884;2023-04-27T01:20:45;98290.63;;;32.41;21.65
54816;BME280;40715;55.752;37.884;2023-04-27T01:23:13;98284.09;;;32.42;21.96
54816;BME280;40715;55.752;37.884;2023-04-27T01:25:42;98288.72;;;32.42;21.87
54816;BME280;40715;55.752;37.884;2023-04-27T01:28:09;98285.81;;;32.43;21.46
54816;BME280;40715;55.752;37.884;2023-04-27T01:30:37;98288.53;;;32.43;21.58
54816;BME280;40715;55.752;37.884;2023-04-27T01:33:04;98291.47;;;32.42;21.45
54816;BME280;40715;55.752;37.884;2023-04-27T01:35:31;98286.84;;;32.42;21.92
54816;BME280;40715;55.752;37.884;2023-04-27T01:37:59;98298.59;;;32.43;21.80
54816;BME280;40715;55.752;37.884;2023-04-27T01:40:27;98293.16;;;32.43;21.78
54816;BME280;40715;55.752;37.884;2023-04-27T01:42:54;98290.44;;;32.43;21.97
54816;BME280;40715;55.752;37.884;2023-04-27T01:45:23;98287.25;;;32.39;21.42
54816;BME280;40715;55.752;37.884;2023-04-27T01:47:51;98288.72;;;32.35;21.83
54816;BME280;40715;55.752;37.884;2023-04-27T01:50:19;98293.97;;;32.43;22.00
54816;BME280;40715;55.752;37.884;2023-04-27T01:52:46;98296.91;;;32.42;21.51
54816;BME280;40715;55.752;37.884;2023-04-27T01:55:13;98296.91;;;32.42;21.47
54816;BME280;40715;55.752;37.884;2023-04-27T01:57:40;98296.91;;;32.42;21.89
54816;BME280;40715;55.752;37.884;2023-04-27T02:00:07;98299.63;;;32.42;21.51
54816;BME280;40715;55.752;37.884;2023-04-27T02:02:35;98309.50;;;32.43;21.73
54816;BME280;40715;55.752;37.884;2023-04-27T02:05:02;98304.88;;;32.43;21.41
54816;BME280;40715;55.752;37.884;2023-04-27T02:07:30;98312.00;;;32.44;21.67
54816;BME280;40715;55.752;37.884;2023-04-27T02:09:57;98308.66;;;32.42;21.38
54816;BME280;40715;55.752;37.884;2023-04-27T02:12:24;98299.41;;;32.37;21.33
54816;BME280;40715;55.752;37.884;2023-04-27T02:14:51;98316.00;;;32.42;21.74
54816;BME280;40715;55.752;37.884;2023-04-27T02:17:18;98316.63;;;32.44;21.86
54816;BME280;40715;55.752;37.884;2023-04-27T02:19:45;98320.19;;;32.44;21.67
54816;BME280;40715;55.752;37.884;2023-04-27T02:22:12;98325.19;;;32.41;21.73
54816;BME280;40715;55.752;37.884;2023-04-27T02:24:39;98323.56;;;32.40;21.90
54816;BME280;40715;55.752;37.884;2023-04-27T02:27:06;98314.50;;;32.39;21.84
54816;BME280;40715;55.752;37.884;2023-04-27T02:29:33;98326.91;;;32.42;21.41
54816;BME280;40715;55.752;37.884;2023-04-27T02:32:05;98319.53;;;32.42;21.71
54816;BME280;40715;55.752;37.884;2023-04-27T02:34:32;98325.00;;;32.42;21.73
54816;BME280;40715;55.752;37.884;2023-04-27T02:36:59;98327.94;;;32.41;21.83
54816;BME280;40715;55.752;37.884;2023-04-27T02:39:26;98340.09;;;32.45;21.13
54816;BME280;40715;55.752;37.884;2023-04-27T02:41:53;98342.00;;;32.44;21.44
54816;BME280;40715;55.752;37.884;2023-04-27T02:44:20;98349.97;;;32.46;21.04
54816;BME280;40715;55.752;37.884;2023-04-27T02:46:47;98344.72;;;32.44;20.91
54816;BME280;40715;55.752;37.884;2023-04-27T02:49:15;98340.72;;;32.40;21.34
54816;BME280;40715;55.752;37.884;2023-04-27T02:51:42;98350.38;;;32.43;21.19
54816;BME280;40715;55.752;37.884;2023-04-27T02:54:09;98351.22;;;32.43;21.29
54816;BME280;40715;55.752;37.884;2023-04-27T02:56:37;98355.84;;;32.43;21.02
54816;BME280;40715;55.752;37.884;2023-04-27T02:59:04;98373.03;;;32.43;20.96
54816;BME280;40715;55.752;37.884;2023-04-27T03:01:31;98362.31;;;32.42;21.33
54816;BME280;40715;55.752;37.884;2023-04-27T03:03:58;98361.06;;;32.38;21.43
54816;BME280;40715;55.752;37.884;2023-04-27T03:06:25;98361.72;;;32.40;21.08
54816;BME280;40715;55.752;37.884;2023-04-27T03:08:53;98362.31;;;32.42;21.14
54816;BME280;40715;55.752;37.884;2023-04-27T03:11:20;98366.09;;;32.41;21.11
54816;BME280;40715;55.752;37.884;2023-04-27T03:13:47;98365.06;;;32.42;21.54
54816;BME280;40715;55.752;37.884;2023-04-27T03:16:14;98371.53;;;32.41;21.28
54816;BME280;40715;55.752;37.884;2023-04-27T03:18:41;98378.06;;;32.40;21.41
54816;BME280;40715;55.752;37.884;2023-04-27T03:21:11;98376.16;;;32.40;21.48
54816;BME280;40715;55.752;37.884;2023-04-27T03:23:39;98381.81;;;32.39;21.59
54816;BME280;40715;55.752;37.884;2023-04-27T03:26:10;98389.16;;;32.38;21.41
54816;BME280;40715;55.752;37.884;2023-04-27T03:28:38;98378.06;;;32.40;21.36
54816;BME280;40715;55.752;37.884;2023-04-27T03:31:09;98387.28;;;32.39;21.80
54816;BME280;40715;55.752;37.884;2023-04-27T03:33:36;98385.38;;;32.39;21.45
54816;BME280;40715;55.752;37.884;2023-04-27T03:36:04;98392.72;;;32.39;21.91
54816;BME280;40715;55.752;37.884;2023-04-27T03:38:33;98394.00;;;32.43;21.78
54816;BME280;40715;55.752;37.884;2023-04-27T03:41:01;98387.91;;;32.41;21.47
54816;BME280;40715;55.752;37.884;2023-04-27T03:43:28;98384.53;;;32.39;21.56
54816;BME280;40715;55.752;37.884;2023-04-27T03:45:55;98394.41;;;32.40;21.61
54816;BME280;40715;55.752;37.884;2023-04-27T03:48:23;98390.41;;;32.42;22.03
54816;BME280;40715;55.752;37.884;2023-04-27T03:50:50;98398.59;;;32.42;22.06
54816;BME280;40715;55.752;37.884;2023-04-27T03:53:17;98391.91;;;32.38;21.85
54816;BME280;40715;55.752;37.884;2023-04-27T03:55:44;98406.38;;;32.45;21.79
54816;BME280;40715;55.752;37.884;2023-04-27T03:58:13;98409.94;;;32.46;21.57
54816;BME280;40715;55.752;37.884;2023-04-27T04:00:40;98403.22;;;32.42;21.94
54816;BME280;40715;55.752;37.884;2023-04-27T04:03:08;98415.59;;;32.44;21.68
54816;BME280;40715;55.752;37.884;2023-04-27T04:05:38;98422.75;;;32.45;21.66
54816;BME280;40715;55.752;37.884;2023-04-27T04:08:05;98420.22;;;32.44;21.82
54816;BME280;40715;55.752;37.884;2023-04-27T04:10:32;98418.53;;;32.43;22.15
54816;BME280;40715;55.752;37.884;2023-04-27T04:12:59;98413.50;;;32.40;22.07
54816;BME280;40715;55.752;37.884;2023-04-27T04:15:26;98419.34;;;32.43;21.92
54816;BME280;40715;55.752;37.884;2023-04-27T04:17:54;98420.84;;;32.46;21.80
54816;BME280;40715;55.752;37.884;2023-04-27T04:20:22;98421.47;;;32.48;21.72
54816;BME280;40715;55.752;37.884;2023-04-27T04:22:49;98423.97;;;32.49;21.84
54816;BME280;40715;55.752;37.884;2023-04-27T04:25:17;98423.81;;;32.51;21.50
54816;BME280;40715;55.752;37.884;2023-04-27T04:27:44;98419.59;;;32.48;21.57
54816;BME280;40715;55.752;37.884;2023-04-27T04:30:11;98428.41;;;32.50;21.59
54816;BME280;40715;55.752;37.884;2023-04-27T04:32:39;98432.81;;;32.51;21.68
54816;BME280;40715;55.752;37.884;2023-04-27T04:35:06;98425.47;;;32.52;21.56
54816;BME280;40715;55.752;37.884;2023-04-27T04:37:33;98429.03;;;32.52;21.55
54816;BME280;40715;55.752;37.884;2023-04-27T04:40:05;98438.69;;;32.55;21.83
54816;BME280;40715;55.752;37.884;2023-04-27T04:42:35;98427.16;;;32.53;21.75
54816;BME280;40715;55.752;37.884;2023-04-27T04:45:04;98435.78;;;32.57;22.09
54816;BME280;40715;55.752;37.884;2023-04-27T04:47:31;98435.78;;;32.57;21.67
54816;BME280;40715;55.752;37.884;2023-04-27T04:50:00;98428.41;;;32.57;21.69
54816;BME280;40715;55.752;37.884;2023-04-27T04:52:30;98433.66;;;32.59;21.75
54816;BME280;40715;55.752;37.884;2023-04-27T04:54:57;98434.50;;;32.59;21.83
54816;BME280;40715;55.752;37.884;2023-04-27T04:57:24;98437.88;;;32.61;22.13
54816;BME280;40715;55.752;37.884;2023-04-27T04:59:52;98441.63;;;32.60;21.80
54816;BME280;40715;55.752;37.884;2023-04-27T05:02:19;98438.69;;;32.62;21.69
54816;BME280;40715;55.752;37.884;2023-04-27T05:04:49;98443.13;;;32.63;22.10
54816;BME280;40715;55.752;37.884;2023-04-27T05:07:38;98439.16;;;32.65;22.04
54816;BME280;40715;55.752;37.884;2023-04-27T05:10:16;98430.94;;;32.59;21.81
54816;BME280;40715;55.752;37.884;2023-04-27T05:12:46;98451.09;;;32.64;21.77
54816;BME280;40715;55.752;37.884;2023-04-27T05:15:13;98447.31;;;32.65;21.74
54816;BME280;40715;55.752;37.884;2023-04-27T05:17:41;98452.78;;;32.65;21.88
54816;BME280;40715;55.752;37.884;2023-04-27T05:20:09;98453.59;;;32.66;21.91
54816;BME280;40715;55.752;37.884;2023-04-27T05:22:37;98449.84;;;32.67;21.90
54816;BME280;40715;55.752;37.884;2023-04-27T05:25:04;98451.72;;;32.66;21.90
54816;BME280;40715;55.752;37.884;2023-04-27T05:27:32;98456.97;;;32.68;21.84
54816;BME280;40715;55.752;37.884;2023-04-27T05:29:59;98454.09;;;32.69;22.33
54816;BME280;40715;55.752;37.884;2023-04-27T05:32:26;98451.16;;;32.71;21.98
54816;BME280;40715;55.752;37.884;2023-04-27T05:34:54;98453.00;;;32.71;22.18
54816;BME280;40715;55.752;37.884;2023-04-27T05:37:21;98441.66;;;32.67;22.25
54816;BME280;40715;55.752;37.884;2023-04-27T05:39:48;98442.31;;;32.69;22.23
54816;BME280;40715;55.752;37.884;2023-04-27T05:42:15;98450.53;;;32.76;21.83
54816;BME280;40715;55.752;37.884;2023-04-27T05:44:42;98448.41;;;32.71;21.78
54816;BME280;40715;55.752;37.884;2023-04-27T05:47:09;98459.31;;;32.78;22.02
54816;BME280;40715;55.752;37.884;2023-04-27T05:49:37;98462.06;;;32.78;22.21
54816;BME280;40715;55.752;37.884;2023-04-27T05:52:04;98460.19;;;32.78;21.96
54816;BME280;40715;55.752;37.884;2023-04-27T05:54:31;98458.06;;;32.80;22.72
54816;BME280;40715;55.752;37.884;2023-04-27T05:56:58;98460.81;;;32.80;22.21
54816;BME280;40715;55.752;37.884;2023-04-27T05:59:25;98455.13;;;32.82;23.00
54816;BME280;40715;55.752;37.884;2023-04-27T06:01:53;98460.19;;;32.85;22.36
54816;BME280;40715;55.752;37.884;2023-04-27T06:04:20;98456.63;;;32.84;22.57
54816;BME280;40715;55.752;37.884;2023-04-27T06:06:47;98462.31;;;32.90;22.80
54816;BME280;40715;55.752;37.884;2023-04-27T06:09:15;98461.22;;;32.91;22.74
54816;BME280;40715;55.752;37.884;2023-04-27T06:11:42;98464.63;;;32.93;22.61
54816;BME280;40715;55.752;37.884;2023-04-27T06:14:09;98465.22;;;32.95;22.86
54816;BME280;40715;55.752;37.884;2023-04-27T06:16:36;98468.81;;;32.95;22.73
54816;BME280;40715;55.752;37.884;2023-04-27T06:19:03;98460.63;;;32.95;23.05
54816;BME280;40715;55.752;37.884;2023-04-27T06:21:31;98461.25;;;32.97;23.28
54816;BME280;40715;55.752;37.884;2023-04-27T06:23:59;98475.13;;;33.02;23.04
54816;BME280;40715;55.752;37.884;2023-04-27T06:26:27;98470.50;;;33.03;22.94
54816;BME280;40715;55.752;37.884;2023-04-27T06:28:55;98472.19;;;33.04;23.14
54816;BME280;40715;55.752;37.884;2023-04-27T06:31:22;98474.25;;;33.02;23.40
54816;BME280;40715;55.752;37.884;2023-04-27T06:33:49;98466.28;;;33.00;23.21
54816;BME280;40715;55.752;37.884;2023-04-27T06:36:17;98475.31;;;33.08;23.06
54816;BME280;40715;55.752;37.884;2023-04-27T06:38:44;98485.19;;;33.09;23.09
54816;BME280;40715;55.752;37.884;2023-04-27T06:41:11;98486.03;;;33.09;23.48
54816;BME280;40715;55.752;37.884;2023-04-27T06:43:38;98482.47;;;33.09;23.05
54816;BME280;40715;55.752;37.884;2023-04-27T06:46:23;98483.38;;;33.23;22.96
54816;BME280;40715;55.752;37.884;2023-04-27T06:48:50;98491.91;;;33.13;23.06
54816;BME280;40715;55.752;37.884;2023-04-27T06:51:18;98479.75;;;33.09;22.95
54816;BME280;40715;55.752;37.884;2023-04-27T06:53:45;98483.28;;;33.09;23.05
54816;BME280;40715;55.752;37.884;2023-04-27T06:56:12;98488.97;;;33.08;23.46
54816;BME280;40715;55.752;37.884;2023-04-27T06:58:40;98495.91;;;33.10;23.19
54816;BME280;40715;55.752;37.884;2023-04-27T07:01:07;98493.16;;;33.10;23.20
54816;BME280;40715;55.752;37.884;2023-04-27T07:03:34;98492.34;;;33.10;23.67
54816;BME280;40715;55.752;37.884;2023-04-27T07:06:02;98492.97;;;33.12;23.25
54816;BME280;40715;55.752;37.884;2023-04-27T07:08:29;98486.03;;;33.09;23.18
54816;BME280;40715;55.752;37.884;2023-04-27T07:10:56;98483.72;;;33.13;23.61
54816;BME280;40715;55.752;37.884;2023-04-27T07:13:23;98479.53;;;33.10;23.20
54816;BME280;40715;55.752;37.884;2023-04-27T07:15:54;98475.75;;;33.04;23.22
54816;BME280;40715;55.752;37.884;2023-04-27T07:18:25;98477.84;;;33.09;23.31
54816;BME280;40715;55.752;37.884;2023-04-27T07:20:54;98488.16;;;33.14;23.13
54816;BME280;40715;55.752;37.884;2023-04-27T07:23:23;98478.91;;;33.15;23.21
54816;BME280;40715;55.752;37.884;2023-04-27T07:25:51;98489.59;;;33.16;23.37
54816;BME280;40715;55.752;37.884;2023-04-27T07:28:18;98481.63;;;33.15;23.06
54816;BME280;40715;55.752;37.884;2023-04-27T07:30:45;98490.03;;;33.13;23.07
54816;BME280;40715;55.752;37.884;2023-04-27T07:33:14;98494.88;;;33.18;22.56
54816;BME280;40715;55.752;37.884;2023-04-27T07:35:41;98491.28;;;33.17;22.18
54816;BME280;40715;55.752;37.884;2023-04-27T07:38:08;98500.53;;;33.16;22.16
54816;BME280;40715;55.752;37.884;2023-04-27T07:40:35;98494.22;;;33.16;22.09
54816;BME280;40715;55.752;37.884;2023-04-27T07:43:02;98497.16;;;33.14;22.03
54816;BME280;40715;55.752;37.884;2023-04-27T07:45:29;98505.56;;;33.13;21.77
54816;BME280;40715;55.752;37.884;2023-04-27T07:48:00;98497.59;;;33.11;21.40
54816;BME280;40715;55.752;37.884;2023-04-27T07:50:28;98499.25;;;33.06;21.14
54816;BME280;40715;55.752;37.884;2023-04-27T07:52:56;98499.88;;;33.08;21.19
54816;BME280;40715;55.752;37.884;2023-04-27T07:55:24;98502.59;;;33.08;20.96
54816;BME280;40715;55.752;37.884;2023-04-27T07:57:52;98500.09;;;33.06;20.82
54816;BME280;40715;55.752;37.884;2023-04-27T08:00:20;98500.28;;;33.04;20.60
54816;BME280;40715;55.752;37.884;2023-04-27T08:02:48;98496.53;;;33.06;20.63
54816;BME280;40715;55.752;37.884;2023-04-27T08:05:16;98494.84;;;33.04;20.62
54816;BME280;40715;55.752;37.884;2023-04-27T08:07:44;98505.75;;;33.04;20.46
54816;BME280;40715;55.752;37.884;2023-04-27T08:10:11;98505.97;;;33.03;20.35
54816;BME280;40715;55.752;37.884;2023-04-27T08:12:39;98510.59;;;33.02;20.25
54816;BME280;40715;55.752;37.884;2023-04-27T08:15:06;98498.81;;;33.02;20.11
54816;BME280;40715;55.752;37.884;2023-04-27T08:17:34;98502.63;;;33.01;19.46
54816;BME280;40715;55.752;37.884;2023-04-27T08:20:03;98494.44;;;33.01;19.57
54816;BME280;40715;55.752;37.884;2023-04-27T08:22:30;98501.53;;;33.02;19.38
54816;BME280;40715;55.752;37.884;2023-04-27T08:24:58;98495.25;;;33.01;19.63
54816;BME280;40715;55.752;37.884;2023-04-27T08:27:25;98492.53;;;33.01;19.49
54816;BME280;40715;55.752;37.884;2023-04-27T08:29:52;98494.63;;;32.99;19.57
54816;BME280;40715;55.752;37.884;2023-04-27T08:32:19;98487.72;;;32.97;19.48
54816;BME280;40715;55.752;37.884;2023-04-27T08:34:46;98484.56;;;33.00;19.21
54816;BME280;40715;55.752;37.884;2023-04-27T08:37:13;98494.63;;;32.99;19.37
54816;BME280;40715;55.752;37.884;2023-04-27T08:39:40;98482.88;;;32.99;19.51
54816;BME280;40715;55.752;37.884;2023-04-27T08:42:11;98484.75;;;32.98;19.75
54816;BME280;40715;55.752;37.884;2023-04-27T08:44:42;98476.59;;;32.98;19.88
54816;BME280;40715;55.752;37.884;2023-04-27T08:47:10;98492.94;;;32.98;19.60
54816;BME280;40715;55.752;37.884;2023-04-27T08:49:37;98484.75;;;32.98;19.92
54816;BME280;40715;55.752;37.884;2023-04-27T08:52:11;98496.31;;;33.00;19.48
54816;BME280;40715;55.752;37.884;2023-04-27T08:54:39;98499.69;;;33.02;19.55
54816;BME280;40715;55.752;37.884;2023-04-27T08:57:13;98488.75;;;33.02;19.65
54816;BME280;40715;55.752;37.884;2023-04-27T08:59:42;98482.69;;;33.07;19.46
54816;BME280;40715;55.752;37.884;2023-04-27T09:02:19;98490.88;;;33.07;19.48
54816;BME280;40715;55.752;37.884;2023-04-27T09:04:46;98488.13;;;33.07;19.40
54816;BME280;40715;55.752;37.884;2023-04-27T09:07:15;98492.97;;;33.05;19.75
54816;BME280;40715;55.752;37.884;2023-04-27T09:09:44;98481.19;;;33.04;19.18
54816;BME280;40715;55.752;37.884;2023-04-27T09:12:19;98499.47;;;33.11;19.12
54816;BME280;40715;55.752;37.884;2023-04-27T09:17:27;98487.09;;;33.08;19.30
54816;BME280;40715;55.752;37.884;2023-04-27T09:20:07;98482.69;;;33.14;19.08
54816;BME280;40715;55.752;37.884;2023-04-27T09:25:24;98477.03;;;33.15;19.07
54816;BME280;40715;55.752;37.884;2023-04-27T09:27:52;98475.97;;;33.10;19.04
54816;BME280;40715;55.752;37.884;2023-04-27T09:30:20;98470.28;;;33.04;19.08
54816;BME280;40715;55.752;37.884;2023-04-27T09:32:55;98490.44;;;33.10;19.02
54816;BME280;40715;55.752;37.884;2023-04-27T09:35:27;98481.22;;;33.11;19.45
54816;BME280;40715;55.752;37.884;2023-04-27T09:37:55;98494.41;;;33.08;19.09
54816;BME280;40715;55.752;37.884;2023-04-27T09:40:25;98486.88;;;33.10;18.75
54816;BME280;40715;55.752;37.884;2023-04-27T09:42:58;98493.81;;;33.12;18.66
54816;BME280;40715;55.752;37.884;2023-04-27T09:45:29;98496.56;;;33.12;19.02
54816;BME280;40715;55.752;37.884;2023-04-27T09:47:57;98481.44;;;33.10;18.76
54816;BME280;40715;55.752;37.884;2023-04-27T09:50:24;98492.97;;;33.12;18.82
54816;BME280;40715;55.752;37.884;2023-04-27T09:52:51;98482.47;;;33.09;18.75
54816;BME280;40715;55.752;37.884;2023-04-27T09:55:31;98478.28;;;33.13;18.72
54816;BME280;40715;55.752;37.884;2023-04-27T10:08:52;98485.41;;;33.07;18.83
54816;BME280;40715;55.752;37.884;2023-04-27T10:11:34;98483.28;;;33.09;18.79
54816;BME280;40715;55.752;37.884;2023-04-27T10:14:06;98488.56;;;33.04;18.58
54816;BME280;40715;55.752;37.884;2023-04-27T10:16:57;98479.09;;;33.13;18.58
54816;BME280;40715;55.752;37.884;2023-04-27T10:19:24;98483.72;;;33.06;18.85
54816;BME280;40715;55.752;37.884;2023-04-27T10:21:59;98484.78;;;33.05;18.63
54816;BME280;40715;55.752;37.884;2023-04-27T10:24:36;98493.59;;;33.07;18.83
54816;BME280;40715;55.752;37.884;2023-04-27T10:27:06;98495.06;;;33.03;18.60
54816;BME280;40715;55.752;37.884;2023-04-27T10:29:38;98491.06;;;33.06;18.76
54816;BME280;40715;55.752;37.884;2023-04-27T10:32:11;98482.88;;;33.06;18.84
54816;BME280;40715;55.752;37.884;2023-04-27T10:34:39;98479.34;;;33.05;18.20
54816;BME280;40715;55.752;37.884;2023-04-27T10:37:10;98482.88;;;33.06;18.29
54816;BME280;40715;55.752;37.884;2023-04-27T10:39:40;98485.81;;;33.04;18.09
54816;BME280;40715;55.752;37.884;2023-04-27T10:42:25;98491.09;;;33.12;18.25
54816;BME280;40715;55.752;37.884;2023-04-27T10:44:57;98492.97;;;33.05;18.09
54816;BME280;40715;55.752;37.884;2023-04-27T10:47:41;98485.00;;;33.10;18.54
54816;BME280;40715;55.752;37.884;2023-04-27T10:50:10;98482.25;;;33.03;18.48
54816;BME280;40715;55.752;37.884;2023-04-27T10:52:44;98479.34;;;33.05;18.07
54816;BME280;40715;55.752;37.884;2023-04-27T10:55:14;98484.13;;;33.03;18.51
54816;BME280;40715;55.752;37.884;2023-04-27T10:57:49;98496.53;;;33.06;18.23
54816;BME280;40715;55.752;37.884;2023-04-27T11:00:40;98485.22;;;33.15;18.44
54816;BME280;40715;55.752;37.884;2023-04-27T11:05:44;98490.25;;;33.05;18.19
54816;BME280;40715;55.752;37.884;2023-04-27T11:08:13;98499.69;;;33.02;18.56
54816;BME280;40715;55.752;37.884;2023-04-27T11:10:45;98507.00;;;33.02;18.10
54816;BME280;40715;55.752;37.884;2023-04-27T11:13:15;98488.75;;;33.02;18.35
54816;BME280;40715;55.752;37.884;2023-04-27T11:15:47;98507.66;;;33.04;18.16
54816;BME280;40715;55.752;37.884;2023-04-27T11:18:16;98517.09;;;33.01;18.28
54816;BME280;40715;55.752;37.884;2023-04-27T11:20:50;98509.94;;;33.00;18.03
54816;BME280;40715;55.752;37.884;2023-04-27T11:23:28;98500.94;;;33.07;18.53
54816;BME280;40715;55.752;37.884;2023-04-27T11:25:56;98517.28;;;33.00;18.12
54816;BME280;40715;55.752;37.884;2023-04-27T11:28:23;98524.44;;;33.01;18.79
54816;BME280;40715;55.752;37.884;2023-04-27T11:30:57;98529.69;;;33.02;18.70
54816;BME280;40715;55.752;37.884;2023-04-27T11:33:26;98507.44;;;33.06;18.39
54816;BME280;40715;55.752;37.884;2023-04-27T11:35:53;98522.56;;;33.08;18.95
54816;BME280;40715;55.752;37.884;2023-04-27T11:38:22;98523.84;;;33.12;18.65
54816;BME280;40715;55.752;37.884;2023-04-27T11:41:03;98517.97;;;33.22;18.76
54816;BME280;40715;55.752;37.884;2023-04-27T11:43:31;98526.34;;;33.20;18.44
54816;BME280;40715;55.752;37.884;2023-04-27T11:46:05;98523.06;;;33.25;18.59
54816;BME280;40715;55.752;37.884;2023-04-27T11:48:35;98533.97;;;33.25;18.56
54816;BME280;40715;55.752;37.884;2023-04-27T11:51:03;98519.91;;;33.28;18.40
54816;BME280;40715;55.752;37.884;2023-04-27T11:53:33;98519.69;;;33.30;18.60
54816;BME280;40715;55.752;37.884;2023-04-27T11:56:02;98533.53;;;33.35;18.29
54816;BME280;40715;55.752;37.884;2023-04-27T11:58:34;98510.03;;;33.34;18.23
54816;BME280;40715;55.752;37.884;2023-04-27T12:01:06;98518.63;;;33.37;18.57
54816;BME280;40715;55.752;37.884;2023-04-27T12:03:33;98520.53;;;33.37;18.35
54816;BME280;40715;55.752;37.884;2023-04-27T12:06:01;98520.97;;;33.34;18.48
54816;BME280;40715;55.752;37.884;2023-04-27T12:08:47;98515.69;;;33.39;18.63
54816;BME280;40715;55.752;37.884;2023-04-27T12:11:14;98512.97;;;33.32;18.65
54816;BME280;40715;55.752;37.884;2023-04-27T12:13:42;98504.78;;;33.26;18.71
54816;BME280;40715;55.752;37.884;2023-04-27T12:16:09;98506.03;;;33.30;18.86
54816;BME280;40715;55.752;37.884;2023-04-27T12:18:37;98510.25;;;33.32;18.46
54816;BME280;40715;55.752;37.884;2023-04-27T12:21:05;98506.03;;;33.30;18.62
54816;BME280;40715;55.752;37.884;2023-04-27T12:23:34;98514.44;;;33.35;18.74
54816;BME280;40715;55.752;37.884;2023-04-27T12:26:03;98503.72;;;33.33;18.70
54816;BME280;40715;55.752;37.884;2023-04-27T12:28:30;98500.59;;;33.36;18.89
54816;BME280;40715;55.752;37.884;2023-04-27T12:30:57;98508.13;;;33.34;18.64
54816;BME280;40715;55.752;37.884;2023-04-27T12:33:25;98508.56;;;33.38;18.83
54816;BME280;40715;55.752;37.884;2023-04-27T12:35:55;98492.78;;;33.33;18.40
54816;BME280;40715;55.752;37.884;2023-04-27T12:38:25;98497.44;;;33.40;18.58
54816;BME280;40715;55.752;37.884;2023-04-27T12:40:52;98502.69;;;33.41;18.76
54816;BME280;40715;55.752;37.884;2023-04-27T12:43:19;98492.19;;;33.38;18.40
54816;BME280;40715;55.752;37.884;2023-04-27T12:45:47;98483.56;;;33.41;18.76
54816;BME280;40715;55.752;37.884;2023-04-27T12:48:14;98491.97;;;33.40;18.27
54816;BME280;40715;55.752;37.884;2023-04-27T12:50:43;98489.25;;;33.40;18.70
54816;BME280;40715;55.752;37.884;2023-04-27T12:53:10;98489.25;;;33.40;18.47
54816;BME280;40715;55.752;37.884;2023-04-27T12:55:37;98486.72;;;33.38;18.84
54816;BME280;40715;55.752;37.884;2023-04-27T12:58:04;98483.16;;;33.37;18.48
54816;BME280;40715;55.752;37.884;2023-04-27T13:00:31;98484.41;;;33.35;18.78
54816;BME280;40715;55.752;37.884;2023-04-27T13:03:01;98482.09;;;33.38;18.63
54816;BME280;40715;55.752;37.884;2023-04-27T13:05:28;98481.28;;;33.38;18.80
54816;BME280;40715;55.752;37.884;2023-04-27T13:07:57;98482.31;;;33.37;18.44
54816;BME280;40715;55.752;37.884;2023-04-27T13:10:24;98482.94;;;33.32;18.60
54816;BME280;40715;55.752;37.884;2023-04-27T13:12:51;98495.97;;;33.37;18.79
54816;BME280;40715;55.752;37.884;2023-04-27T13:15:20;98484.22;;;33.36;18.69
54816;BME280;40715;55.752;37.884;2023-04-27T13:17:47;98480.84;;;33.34;18.88